Terminal Aerodrome Forecast
Issued by NWS

Home | Current Version | Previous Version | Text Only | Print | Product List | Glossary On
Versions: 1 2 3 4 5 6 7 8 9 10 11 12 13 14 15 16
000
FTUS46 KLOX 310500 RRA
TAFSBA
TAF
KSBA 310548Z 3106/0106 VRB03KT P6SM SCT150 BKN250 WS010/34025KT
     FM311100 VRB03KT P6SM SCT150
     FM311800 18006KT P6SM SCT250
     FM312100 24007KT P6SM SKC
     FM010300 VRB03KT P6SM SKC=

USA.gov is the U.S. government's official web portal to all federal, state and local government web resources and services.